Time;durP1;ratioP1;P1;durP2;ratioP2;P2;SDS_P1;SDS_P2;PMS_P1;PMS_P2;Temp;Humidity;BMP_temperature;BMP_pressure;BME280_temperature;BME280_humidity;BME280_pressure;Samples;Min_cycle;Max_cycle;Signal;HPM_P1;HPM_P2
2021/04/23 00:00:29;;;;;;;8.45;4.72;;;;;;;0.32;78.57;102735.31;1040369;28;20124;-76
2021/04/23 00:01:07;;;;;;;9.90;4.88;;;;;;;0.37;78.83;102718.78;1032381;28;20065;-76
2021/04/23 00:01:39;;;;;;;13.75;5.07;;;;;;;0.50;78.65;102725.03;1036597;28;20046;-76
2021/04/23 00:02:10;;;;;;;10.48;4.43;;;;;;;0.47;78.75;102729.00;1036190;28;20571;-77
2021/04/23 00:02:41;;;;;;;14.60;4.88;;;;;;;0.46;78.03;102727.22;1036446;28;20065;-76
2021/04/23 00:03:36;;;;;;;10.82;4.82;;;;;;;0.49;77.96;102724.94;1036279;28;20058;-76
2021/04/23 00:04:07;;;;;;;8.88;4.75;;;;;;;0.40;78.44;102726.69;1038803;28;20046;-76
2021/04/23 00:04:38;;;;;;;9.80;4.63;;;;;;;0.36;78.22;102724.66;1040515;28;20045;-76
2021/04/23 00:05:09;;;;;;;8.70;4.70;;;;;;;0.34;78.69;102732.16;1040489;28;20076;-77
2021/04/23 00:05:41;;;;;;;11.75;4.68;;;;;;;0.23;78.60;102722.69;1040483;28;20127;-76
2021/04/23 00:06:32;;;;;;;8.48;5.15;;;;;;;0.29;78.93;102729.97;1036288;28;20046;-76
2021/04/23 00:07:03;;;;;;;11.43;5.00;;;;;;;0.28;79.46;102731.59;1039489;28;20053;-76
2021/04/23 00:07:34;;;;;;;12.43;5.13;;;;;;;0.24;79.40;102727.91;1040449;28;20051;-76
2021/04/23 00:08:06;;;;;;;12.13;5.55;;;;;;;0.27;79.04;102732.34;1039490;28;20424;-76
2021/04/23 00:08:38;;;;;;;14.02;4.88;;;;;;;0.27;79.05;102732.34;1036309;28;20057;-76
2021/04/23 00:09:12;;;;;;;12.40;5.07;;;;;;;0.35;78.80;102730.50;1035877;28;20046;-76
2021/04/23 00:09:43;;;;;;;7.82;5.03;;;;;;;0.39;79.18;102729.97;1037226;28;20053;-76
2021/04/23 00:10:16;;;;;;;9.85;5.20;;;;;;;0.40;78.49;102727.59;1040212;28;20406;-76
2021/04/23 00:10:49;;;;;;;10.18;5.13;;;;;;;0.44;78.04;102728.72;1036735;28;20504;-76
2021/04/23 00:11:26;;;;;;;9.52;5.55;;;;;;;0.36;78.32;102727.19;1036544;28;20054;-76
2021/04/23 00:12:11;;;;;;;10.45;4.05;;;;;;;0.29;78.59;102732.50;1036255;28;20065;-76
2021/04/23 00:12:42;;;;;;;7.65;4.53;;;;;;;0.35;78.48;102733.03;1032283;28;20050;-76
2021/04/23 00:13:14;;;;;;;10.75;5.32;;;;;;;0.35;78.56;102730.50;1032262;28;20121;-76
2021/04/23 00:13:45;;;;;;;13.52;5.47;;;;;;;0.36;78.63;102727.19;1030377;28;20054;-76
2021/04/23 00:14:20;;;;;;;10.48;4.90;;;;;;;0.35;78.44;102735.59;1032258;28;20482;-76
2021/04/23 00:14:52;;;;;;;9.77;5.63;;;;;;;0.37;78.19;102719.66;1033199;28;20050;-76
2021/04/23 00:15:23;;;;;;;12.65;5.68;;;;;;;0.29;78.50;102725.78;1034450;28;20059;-76
2021/04/23 00:15:55;;;;;;;10.60;5.63;;;;;;;0.24;78.71;102733.00;1032316;28;20050;-76
2021/04/23 00:16:26;;;;;;;16.20;5.53;;;;;;;0.23;78.74;102733.75;1028580;28;20055;-76
2021/04/23 00:16:57;;;;;;;16.15;6.22;;;;;;;0.18;78.64;102729.94;1028593;28;20097;-76
2021/04/23 00:17:29;;;;;;;10.32;5.57;;;;;;;0.25;78.34;102731.34;1028658;28;20542;-76
2021/04/23 00:18:00;;;;;;;14.55;6.50;;;;;;;0.31;78.75;102731.88;1032695;28;20054;-76
2021/04/23 00:18:31;;;;;;;12.05;5.15;;;;;;;0.30;78.87;102732.63;1036882;28;20132;-76
2021/04/23 00:19:06;;;;;;;12.55;5.35;;;;;;;0.23;78.60;102730.34;1040359;28;20050;-76
2021/04/23 00:19:38;;;;;;;10.23;5.82;;;;;;;0.19;79.25;102735.91;1040548;28;20123;-76
2021/04/23 00:20:18;;;;;;;10.13;5.60;;;;;;;0.06;78.91;102727.94;1040344;28;20053;-76
2021/04/23 00:20:50;;;;;;;9.32;4.90;;;;;;;-0.02;79.47;102727.28;1040431;28;20501;-76
2021/04/23 00:21:22;;;;;;;16.77;5.35;;;;;;;-0.11;80.09;102727.38;1036398;28;20052;-76
2021/04/23 00:21:55;;;;;;;11.95;5.20;;;;;;;-0.06;79.65;102728.69;1035739;28;20049;-76
2021/04/23 00:22:26;;;;;;;10.55;5.47;;;;;;;0.06;79.67;102731.41;1036297;28;20172;-76
2021/04/23 00:23:01;;;;;;;9.50;5.28;;;;;;;0.07;79.66;102733.19;1036243;28;20533;-77
2021/04/23 00:23:33;;;;;;;14.32;5.63;;;;;;;0.16;79.34;102731.41;1034641;28;20594;-76
2021/04/23 00:24:05;;;;;;;10.23;4.80;;;;;;;0.17;78.97;102738.31;1036226;28;20060;-76
2021/04/23 00:24:36;;;;;;;8.73;5.10;;;;;;;0.17;79.43;102727.22;1036296;28;20053;-76
2021/04/23 00:25:09;;;;;;;10.40;5.40;;;;;;;0.18;78.95;102734.13;1036108;28;20045;-76
2021/04/23 00:25:40;;;;;;;11.32;6.05;;;;;;;0.16;79.01;102736.50;1032324;28;20061;-76
2021/04/23 00:26:11;;;;;;;10.23;5.57;;;;;;;0.15;78.64;102722.00;1032270;28;20050;-76
2021/04/23 00:26:43;;;;;;;12.57;5.55;;;;;;;0.21;78.75;102729.28;1031103;28;20054;-76
2021/04/23 00:27:13;;;;;;;10.25;4.75;;;;;;;0.21;78.89;102724.19;1033255;28;20408;-76
2021/04/23 00:27:44;;;;;;;16.58;5.45;;;;;;;0.22;78.99;102728.50;1036748;28;20521;-76
2021/04/23 00:28:17;;;;;;;10.52;5.35;;;;;;;0.19;78.90;102721.53;1038900;28;20079;-77
2021/04/23 00:28:48;;;;;;;12.45;6.28;;;;;;;0.26;78.88;102731.47;1036342;28;20498;-76
2021/04/23 00:29:21;;;;;;;13.43;5.72;;;;;;;0.21;79.09;102727.63;1036257;28;20452;-76
2021/04/23 00:29:52;;;;;;;14.65;5.25;;;;;;;0.17;78.76;102729.75;1036390;28;20049;-76
2021/04/23 00:30:38;;;;;;;9.57;5.72;;;;;;;0.14;79.02;102734.59;1036302;28;20054;-76
2021/04/23 00:31:10;;;;;;;12.32;5.53;;;;;;;0.20;78.85;102727.50;1036337;28;20050;-76
2021/04/23 00:32:32;;;;;;;11.27;5.70;;;;;;;0.26;78.79;102734.00;1036266;28;20046;-76
2021/04/23 00:33:05;;;;;;;8.52;4.95;;;;;;;0.16;79.11;102725.44;1037189;28;20056;-76
2021/04/23 00:33:37;;;;;;;10.80;5.35;;;;;;;0.15;78.73;102729.63;1040144;28;20046;-76
2021/04/23 00:34:08;;;;;;;10.48;5.68;;;;;;;0.06;79.58;102728.88;1036384;28;20053;-76
2021/04/23 00:34:40;;;;;;;10.65;5.45;;;;;;;0.02;79.44;102729.34;1036214;28;20046;-76
2021/04/23 00:35:12;;;;;;;15.38;6.07;;;;;;;-0.05;80.23;102727.03;1032988;28;20058;-76
2021/04/23 00:35:46;;;;;;;11.45;6.55;;;;;;;-0.01;79.78;102732.50;1032068;28;20052;-76
2021/04/23 00:36:18;;;;;;;15.13;6.07;;;;;;;-0.05;79.84;102737.19;1032998;28;20046;-76
2021/04/23 00:36:49;;;;;;;20.05;6.78;;;;;;;-0.09;80.26;102735.13;1037046;28;20061;-76
2021/04/23 00:37:20;;;;;;;12.55;5.90;;;;;;;-0.10;80.20;102734.25;1037101;28;20058;-76
2021/04/23 00:37:53;;;;;;;8.98;5.88;;;;;;;-0.14;79.87;102728.75;1036082;28;20057;-76
2021/04/23 00:38:27;;;;;;;11.52;6.22;;;;;;;-0.15;80.41;102732.94;1036310;28;20054;-76
2021/04/23 00:38:58;;;;;;;9.10;5.22;;;;;;;-0.18;80.21;102727.56;1033096;28;20072;-76
2021/04/23 00:39:29;;;;;;;8.88;5.18;;;;;;;-0.11;80.22;102735.00;1034212;28;20061;-76
2021/04/23 00:40:01;;;;;;;9.10;5.63;;;;;;;-0.08;79.80;102734.38;1036168;28;20049;-76
2021/04/23 00:40:36;;;;;;;9.10;5.50;;;;;;;-0.06;79.75;102731.22;1036321;28;20049;-76
2021/04/23 00:41:13;;;;;;;10.80;5.47;;;;;;;-0.02;79.39;102740.00;1036274;28;20046;-76
2021/04/23 00:41:45;;;;;;;8.48;5.15;;;;;;;0.02;79.43;102736.09;1036178;28;20084;-76
2021/04/23 00:42:16;;;;;;;14.85;6.03;;;;;;;0.06;78.93;102733.94;1036238;28;20053;-77
2021/04/23 00:42:48;;;;;;;16.77;5.30;;;;;;;0.11;78.73;102731.78;1036204;28;20418;-76
2021/04/23 00:43:22;;;;;;;12.82;5.85;;;;;;;0.17;78.81;102730.69;1032147;28;20057;-76
2021/04/23 00:43:59;;;;;;;9.60;6.22;;;;;;;0.20;78.34;102732.59;1035682;28;20099;-77
2021/04/23 00:44:30;;;;;;;10.40;5.53;;;;;;;0.14;78.48;102738.03;1035796;28;20050;-76
2021/04/23 00:45:01;;;;;;;10.77;5.75;;;;;;;0.14;78.70;102734.59;1036250;28;20179;-76
2021/04/23 00:45:33;;;;;;;9.90;5.63;;;;;;;0.13;78.82;102741.34;1036211;28;20045;-76
2021/04/23 00:46:05;;;;;;;14.57;5.50;;;;;;;0.08;78.64;102734.97;1032037;28;20062;-76
2021/04/23 00:46:37;;;;;;;15.68;6.35;;;;;;;0.06;79.00;102739.03;1028764;28;20509;-76
2021/04/23 00:47:08;;;;;;;9.77;6.10;;;;;;;0.09;79.28;102735.84;1028133;28;20054;-76
2021/04/23 00:47:43;;;;;;;12.85;7.03;;;;;;;0.07;78.75;102740.81;1028564;28;20054;-76
2021/04/23 00:48:16;;;;;;;13.98;6.25;;;;;;;0.02;79.13;102743.72;1028963;28;20109;-76
2021/04/23 00:48:48;;;;;;;13.20;6.53;;;;;;;-0.04;78.96;102733.91;1033290;28;20482;-76
2021/04/23 00:49:20;;;;;;;16.42;6.13;;;;;;;-0.08;79.23;102737.81;1036169;28;20064;-76
2021/04/23 00:49:51;;;;;;;16.00;5.85;;;;;;;-0.09;78.89;102735.13;1033111;28;20084;-76
2021/04/23 00:50:33;;;;;;;12.88;5.65;;;;;;;-0.25;80.24;102739.63;1031983;28;20064;-76
2021/04/23 00:51:11;;;;;;;16.38;6.57;;;;;;;-0.35;80.49;102733.69;1034619;28;20054;-76
2021/04/23 00:51:54;;;;;;;12.48;5.50;;;;;;;-0.34;80.51;102738.06;1034900;28;20056;-76
2021/04/23 00:52:25;;;;;;;14.82;5.55;;;;;;;-0.40;80.88;102740.03;1036134;28;20060;-76
2021/04/23 00:52:58;;;;;;;8.95;5.43;;;;;;;-0.37;81.20;102742.84;1036139;28;20056;-76
2021/04/23 00:53:32;;;;;;;11.85;5.85;;;;;;;-0.36;80.74;102737.00;1036121;28;20054;-76
2021/04/23 00:54:04;;;;;;;10.18;5.57;;;;;;;-0.38;80.47;102737.63;1033108;28;20102;-76
2021/04/23 00:54:36;;;;;;;8.20;5.63;;;;;;;-0.27;80.00;102731.88;1037151;28;20532;-76
2021/04/23 00:55:08;;;;;;;8.90;5.28;;;;;;;-0.20;80.25;102739.28;1040237;28;20429;-76
2021/04/23 00:55:39;;;;;;;12.43;5.78;;;;;;;-0.23;80.01;102728.81;1036771;28;20052;-76
2021/04/23 00:56:15;;;;;;;14.90;5.63;;;;;;;-0.29;80.26;102734.25;1036066;28;20046;-76
2021/04/23 00:56:47;;;;;;;14.57;6.25;;;;;;;-0.21;79.80;102737.50;1035934;28;20056;-76
2021/04/23 00:57:19;;;;;;;15.45;5.82;;;;;;;-0.31;80.02;102735.78;1033598;28;20134;-76
2021/04/23 00:57:50;;;;;;;15.18;6.60;;;;;;;-0.40;80.33;102737.47;1040330;28;20081;-76
2021/04/23 00:58:25;;;;;;;13.77;6.32;;;;;;;-0.33;80.41;102731.31;1040401;28;20045;-76
2021/04/23 00:58:57;;;;;;;13.13;6.65;;;;;;;-0.24;79.90;102728.69;1039859;28;20065;-76
2021/04/23 00:59:28;;;;;;;13.90;5.90;;;;;;;-0.23;80.20;102733.91;1033267;28;20050;-76
2021/04/23 00:59:59;;;;;;;16.30;6.45;;;;;;;-0.28;79.49;102728.44;1036114;28;20052;-76
2021/04/23 01:00:31;;;;;;;12.38;5.82;;;;;;;-0.23;79.58;102730.47;1036165;28;20061;-76
2021/04/23 01:01:07;;;;;;;11.85;6.10;;;;;;;-0.26;79.66;102720.94;1040151;28;20049;-76
2021/04/23 01:01:43;;;;;;;9.05;6.50;;;;;;;-0.26;80.01;102736.19;1040119;28;20045;-76
2021/04/23 01:02:15;;;;;;;10.90;5.90;;;;;;;-0.20;79.17;102733.28;1040110;28;20049;-76
2021/04/23 01:02:46;;;;;;;9.70;5.45;;;;;;;-0.16;79.22;102727.72;1040199;28;20072;-76
2021/04/23 01:03:19;;;;;;;14.52;5.50;;;;;;;-0.14;79.17;102726.22;1040143;28;20045;-76
2021/04/23 01:03:54;;;;;;;12.93;6.30;;;;;;;-0.13;78.90;102730.53;1039440;28;20535;-76
2021/04/23 01:04:28;;;;;;;13.75;5.85;;;;;;;-0.17;78.82;102738.63;1036227;28;20042;-77
2021/04/23 01:05:00;;;;;;;11.45;5.72;;;;;;;-0.18;78.70;102734.31;1036104;28;20049;-76
2021/04/23 01:05:34;;;;;;;11.05;6.13;;;;;;;-0.27;79.00;102729.31;1036224;28;20444;-76
2021/04/23 01:06:17;;;;;;;14.40;5.60;;;;;;;-0.33;79.09;102737.28;1036203;28;20053;-76
2021/04/23 01:06:48;;;;;;;9.98;5.50;;;;;;;-0.37;79.08;102729.25;1036102;28;20101;-76
2021/04/23 01:07:20;;;;;;;10.07;5.30;;;;;;;-0.35;79.47;102736.25;1036118;28;20053;-76
2021/04/23 01:07:51;;;;;;;10.70;6.18;;;;;;;-0.35;79.31;102735.34;1036712;28;20053;-76
2021/04/23 01:08:26;;;;;;;11.50;6.68;;;;;;;-0.46;79.65;102736.03;1036108;28;20058;-76
2021/04/23 01:08:59;;;;;;;8.85;5.10;;;;;;;-0.43;79.51;102739.75;1036188;28;20065;-76
2021/04/23 01:09:31;;;;;;;14.15;6.05;;;;;;;-0.39;79.07;102735.88;1033935;28;20057;-76
2021/04/23 01:10:03;;;;;;;12.75;6.93;;;;;;;-0.44;79.05;102732.91;1036223;28;20050;-76
2021/04/23 01:10:35;;;;;;;8.60;5.15;;;;;;;-0.43;79.05;102733.78;1038897;28;20425;-76
2021/04/23 01:11:06;;;;;;;15.85;6.30;;;;;;;-0.45;78.70;102731.13;1040309;28;20059;-76
2021/04/23 01:11:37;;;;;;;15.52;6.50;;;;;;;-0.42;78.96;102731.38;1039795;28;20056;-76
2021/04/23 01:12:10;;;;;;;12.20;6.25;;;;;;;-0.47;79.05;102732.63;1037863;28;20064;-76
2021/04/23 01:12:41;;;;;;;10.50;5.63;;;;;;;-0.60;78.97;102729.72;1036115;28;20058;-76
2021/04/23 01:13:12;;;;;;;12.13;5.90;;;;;;;-0.59;79.09;102741.69;1032703;28;20046;-76
2021/04/23 01:13:43;;;;;;;12.40;5.68;;;;;;;-0.55;78.77;102736.13;1033752;28;20053;-76
2021/04/23 01:14:15;;;;;;;10.98;6.22;;;;;;;-0.58;78.79;102728.22;1036064;28;20046;-76
2021/04/23 01:14:47;;;;;;;11.77;5.10;;;;;;;-0.68;79.79;102733.22;1036663;28;20042;-76
2021/04/23 01:15:19;;;;;;;12.23;5.65;;;;;;;-0.71;79.62;102738.03;1036132;28;20042;-76
2021/04/23 01:15:50;;;;;;;12.63;6.10;;;;;;;-0.75;79.89;102741.03;1032002;28;20110;-76
2021/04/23 01:16:24;;;;;;;9.57;5.93;;;;;;;-0.75;80.01;102741.03;1032507;28;20057;-76
2021/04/23 01:16:55;;;;;;;14.60;5.88;;;;;;;-0.78;80.23;102741.69;1036919;28;20122;-76
2021/04/23 01:17:26;;;;;;;15.63;6.55;;;;;;;-0.92;80.92;102736.97;1036149;28;20119;-76
2021/04/23 01:17:59;;;;;;;10.55;6.53;;;;;;;-0.90;80.80;102735.47;1036021;28;20053;-76
2021/04/23 01:18:30;;;;;;;16.02;5.55;;;;;;;-0.99;80.61;102738.06;1031725;28;20054;-76
2021/04/23 01:19:05;;;;;;;13.30;5.53;;;;;;;-0.96;80.83;102738.34;1028730;28;20058;-76
2021/04/23 01:19:36;;;;;;;10.13;5.25;;;;;;;-0.89;80.79;102733.06;1031991;28;20054;-76
2021/04/23 01:20:09;;;;;;;17.48;6.78;;;;;;;-0.80;80.03;102738.97;1028831;28;20047;-76
2021/04/23 01:20:40;;;;;;;6.20;5.15;;;;;;;-0.75;80.02;102739.41;1029125;28;20047;-76
2021/04/23 01:21:17;;;;;;;12.85;5.85;;;;;;;-0.70;80.06;102739.81;1031973;28;20050;-75
2021/04/23 01:21:49;;;;;;;10.57;6.07;;;;;;;-0.64;79.57;102743.81;1027916;28;20054;-76
2021/04/23 01:22:20;;;;;;;15.38;5.45;;;;;;;-0.67;79.67;102746.09;1029298;28;20050;-76
2021/04/23 01:22:51;;;;;;;14.50;5.38;;;;;;;-0.71;79.71;102741.47;1033364;28;20054;-76
2021/04/23 01:23:26;;;;;;;10.52;5.00;;;;;;;-0.82;80.23;102743.03;1032872;28;20050;-76
2021/04/23 01:23:59;;;;;;;8.77;5.32;;;;;;;-0.92;80.67;102749.66;1035611;28;20108;-76
2021/04/23 01:24:30;;;;;;;11.57;5.78;;;;;;;-0.99;80.79;102738.06;1036104;28;20046;-76
2021/04/23 01:25:03;;;;;;;14.85;5.57;;;;;;;-0.93;80.93;102753.84;1036108;28;20109;-76
2021/04/23 01:25:34;;;;;;;11.23;5.85;;;;;;;-0.94;80.75;102744.44;1036318;28;20054;-76
2021/04/23 01:26:07;;;;;;;9.80;5.40;;;;;;;-0.95;81.13;102746.88;1036346;28;20409;-76
2021/04/23 01:26:43;;;;;;;11.30;5.30;;;;;;;-1.00;81.01;102750.63;1036151;28;20609;-76
2021/04/23 01:27:14;;;;;;;8.65;5.25;;;;;;;-0.98;81.28;102742.38;1036808;28;20407;-76
2021/04/23 01:27:45;;;;;;;11.98;5.10;;;;;;;-0.95;81.21;102749.41;1040222;28;20444;-76
2021/04/23 01:28:16;;;;;;;10.52;6.15;;;;;;;-0.88;81.00;102745.00;1038800;28;20058;-75
2021/04/23 01:28:50;;;;;;;9.43;5.97;;;;;;;-0.81;80.41;102739.72;1035982;28;20119;-76
2021/04/23 01:29:23;;;;;;;12.40;6.10;;;;;;;-0.82;80.71;102737.94;1036277;28;20049;-76
2021/04/23 01:29:55;;;;;;;10.02;5.65;;;;;;;-0.80;80.03;102738.97;1035984;28;20050;-76
2021/04/23 01:30:26;;;;;;;10.18;5.60;;;;;;;-0.83;80.22;102733.63;1036050;28;20059;-76
2021/04/23 01:30:58;;;;;;;13.35;5.68;;;;;;;-0.87;80.22;102741.72;1031893;28;20047;-76
2021/04/23 01:31:31;;;;;;;13.07;6.40;;;;;;;-0.87;80.64;102739.16;1028755;28;20577;-76
2021/04/23 01:32:03;;;;;;;11.65;5.60;;;;;;;-0.87;80.46;102735.75;1032831;28;20054;-76
2021/04/23 01:32:34;;;;;;;15.70;6.20;;;;;;;-0.78;80.13;102743.31;1032829;28;20057;-76
2021/04/23 01:33:05;;;;;;;11.23;6.05;;;;;;;-0.80;80.14;102738.97;1036001;28;20061;-76
2021/04/23 01:33:39;;;;;;;12.93;5.93;;;;;;;-0.83;80.14;102737.81;1035795;28;20164;-76
2021/04/23 01:34:14;;;;;;;9.27;5.00;;;;;;;-0.85;80.29;102740.22;1032803;28;20042;-76
2021/04/23 01:34:46;;;;;;;10.63;5.15;;;;;;;-0.84;80.53;102736.03;1037492;28;20046;-76
2021/04/23 01:35:22;;;;;;;16.63;6.45;;;;;;;-0.82;79.72;102739.59;1040285;28;20053;-76
2021/04/23 01:35:54;;;;;;;16.35;6.78;;;;;;;-0.78;79.87;102740.78;1036167;28;20502;-76
2021/04/23 01:36:25;;;;;;;10.27;5.80;;;;;;;-0.78;79.72;102740.78;1031872;28;20425;-76
2021/04/23 01:36:58;;;;;;;13.60;5.93;;;;;;;-0.88;80.23;102745.00;1033133;28;20042;-76
2021/04/23 01:37:29;;;;;;;9.82;5.57;;;;;;;-0.94;80.54;102743.56;1036120;28;20410;-76
2021/04/23 01:38:00;;;;;;;14.40;6.35;;;;;;;-0.95;80.38;102745.22;1032548;28;20054;-76
2021/04/23 01:38:33;;;;;;;9.63;5.97;;;;;;;-0.86;80.49;102738.41;1031770;28;20128;-76
2021/04/23 01:39:07;;;;;;;12.27;5.68;;;;;;;-0.78;80.28;102740.78;1028416;28;20054;-76
2021/04/23 01:39:40;;;;;;;11.80;5.72;;;;;;;-0.72;80.43;102744.78;1028936;28;20180;-76
2021/04/23 01:40:12;;;;;;;12.77;6.07;;;;;;;-0.72;80.90;102748.97;1025221;28;20101;-76
2021/04/23 01:40:44;;;;;;;16.15;5.95;;;;;;;-0.78;79.98;102746.75;1025224;28;20048;-76
2021/04/23 01:41:17;;;;;;;9.80;5.63;;;;;;;-0.91;80.18;102752.38;1031013;28;20050;-76
2021/04/23 01:41:50;;;;;;;14.68;6.13;;;;;;;-0.86;80.25;102743.50;1032055;28;20050;-76
2021/04/23 01:42:21;;;;;;;16.50;6.85;;;;;;;-0.84;80.35;102747.09;1033063;28;20414;-76
2021/04/23 01:42:52;;;;;;;13.70;5.95;;;;;;;-0.80;80.29;102749.13;1030745;28;20128;-76
2021/04/23 01:43:23;;;;;;;11.23;5.60;;;;;;;-0.78;80.15;102741.69;1028465;28;20055;-76
2021/04/23 01:43:54;;;;;;;11.63;6.05;;;;;;;-0.74;79.98;102750.44;1035493;28;20050;-76
2021/04/23 01:44:28;;;;;;;13.77;5.78;;;;;;;-0.75;79.75;102756.28;1034686;28;20093;-76
2021/04/23 01:44:59;;;;;;;15.18;6.68;;;;;;;-0.78;80.35;102744.22;1036027;28;20512;-76
2021/04/23 01:45:30;;;;;;;11.30;6.30;;;;;;;-0.78;79.73;102745.88;1036195;28;20080;-76
2021/04/23 01:46:06;;;;;;;13.07;6.22;;;;;;;-0.82;79.81;102747.22;1036056;28;20046;-76
2021/04/23 01:46:39;;;;;;;16.58;6.95;;;;;;;-0.86;80.04;102743.50;1036265;28;20058;-76
2021/04/23 01:47:10;;;;;;;10.95;5.60;;;;;;;-0.89;80.13;102743.22;1035872;28;20743;-76
2021/04/23 01:47:42;;;;;;;6.68;5.47;;;;;;;-0.92;80.27;102748.00;1036055;28;20536;-76
2021/04/23 01:48:16;;;;;;;11.45;5.85;;;;;;;-0.97;80.18;102744.16;1031847;28;20046;-76
2021/04/23 01:48:47;;;;;;;11.32;5.97;;;;;;;-0.94;80.74;102747.00;1032852;28;20050;-76
2021/04/23 01:49:21;;;;;;;14.20;6.38;;;;;;;-0.93;80.38;102742.81;1035949;28;20061;-76
2021/04/23 01:49:55;;;;;;;10.27;5.40;;;;;;;-0.88;80.12;102751.75;1031979;28;20406;-76
2021/04/23 01:50:27;;;;;;;12.82;5.32;;;;;;;-0.89;80.09;102750.84;1033135;28;20054;-76
2021/04/23 01:50:58;;;;;;;13.63;6.60;;;;;;;-1.01;80.27;102749.72;1036008;28;20054;-77
2021/04/23 01:51:30;;;;;;;13.32;6.38;;;;;;;-0.98;80.73;102747.47;1035890;28;20061;-76
2021/04/23 01:52:26;;;;;;;15.80;6.32;;;;;;;-0.86;79.96;102747.69;1032012;28;20446;-76
2021/04/23 01:52:58;;;;;;;16.95;5.82;;;;;;;-0.85;79.90;102740.22;1028367;28;20050;-76
2021/04/23 01:53:29;;;;;;;11.95;4.65;;;;;;;-0.85;80.49;102737.69;1035648;28;20050;-76
2021/04/23 01:54:00;;;;;;;11.13;5.80;;;;;;;-0.84;79.62;102751.28;1036430;28;20074;-76
2021/04/23 01:54:31;;;;;;;15.90;6.22;;;;;;;-0.86;80.20;102743.50;1039982;28;20056;-76
2021/04/23 01:55:06;;;;;;;11.13;5.85;;;;;;;-0.84;80.18;102743.66;1040093;28;20046;-76
2021/04/23 01:55:38;;;;;;;7.53;5.32;;;;;;;-0.96;80.42;102747.63;1039877;28;20120;-76
2021/04/23 01:56:10;;;;;;;15.45;6.55;;;;;;;-1.04;80.52;102753.63;1040066;28;20046;-76
2021/04/23 01:56:42;;;;;;;15.90;5.53;;;;;;;-1.05;80.42;102754.38;1035857;28;20064;-76
2021/04/23 01:57:13;;;;;;;8.75;5.65;;;;;;;-1.03;80.60;102756.28;1036627;28;20514;-76
2021/04/23 01:57:45;;;;;;;19.58;6.05;;;;;;;-0.93;80.02;102750.44;1039884;28;20049;-76
2021/04/23 01:58:16;;;;;;;9.88;5.72;;;;;;;-0.97;79.86;102753.44;1039940;28;20060;-76
2021/04/23 01:58:47;;;;;;;11.90;5.97;;;;;;;-1.01;80.37;102749.72;1040048;28;20053;-76
2021/04/23 01:59:22;;;;;;;14.25;6.93;;;;;;;-1.05;80.29;102750.19;1032532;28;20062;-76
2021/04/23 01:59:53;;;;;;;12.10;5.82;;;;;;;-1.05;80.71;102752.72;1035855;28;20056;-76
2021/04/23 02:00:33;;;;;;;14.43;5.80;;;;;;;-0.99;80.36;102748.22;1031887;28;20047;-76
2021/04/23 02:01:06;;;;;;;10.63;5.85;;;;;;;-0.91;80.24;102754.91;1037685;28;20074;-76
2021/04/23 02:01:37;;;;;;;12.23;5.90;;;;;;;-0.91;79.83;102754.00;1033813;28;20099;-76
2021/04/23 02:02:09;;;;;;;13.45;5.97;;;;;;;-1.06;80.42;102753.50;1033768;28;20054;-76
2021/04/23 02:02:40;;;;;;;14.13;5.88;;;;;;;-1.09;80.83;102758.28;1036014;28;20056;-76
2021/04/23 02:03:12;;;;;;;10.13;6.15;;;;;;;-1.00;80.66;102751.50;1036020;28;20155;-76
2021/04/23 02:03:44;;;;;;;10.65;5.82;;;;;;;-0.98;79.87;102751.66;1036073;28;20449;-76
2021/04/23 02:04:17;;;;;;;9.98;5.50;;;;;;;-0.99;80.31;102749.88;1040018;28;20053;-76
2021/04/23 02:04:48;;;;;;;11.00;6.65;;;;;;;-1.03;80.63;102758.84;1040102;28;20401;-76
2021/04/23 02:05:21;;;;;;;14.20;5.57;;;;;;;-0.97;80.13;102759.41;1039847;28;20410;-76
2021/04/23 02:05:57;;;;;;;18.63;5.78;;;;;;;-0.95;80.10;102764.66;1035947;28;20050;-76
2021/04/23 02:06:28;;;;;;;12.80;5.22;;;;;;;-0.92;80.22;102754.75;1035822;28;20057;-76
2021/04/23 02:07:01;;;;;;;9.95;6.07;;;;;;;-0.90;79.97;102748.19;1035887;28;20160;-76
2021/04/23 02:07:32;;;;;;;11.93;6.80;;;;;;;-0.89;79.49;102755.94;1036017;28;20498;-76
2021/04/23 02:08:05;;;;;;;9.77;5.35;;;;;;;-0.87;79.55;102756.06;1035970;28;20594;-76
2021/04/23 02:08:37;;;;;;;8.23;5.32;;;;;;;-0.87;79.64;102756.94;1035875;28;20132;-76
2021/04/23 02:09:09;;;;;;;13.30;5.85;;;;;;;-0.95;79.99;102759.56;1035938;28;20123;-75
2021/04/23 02:09:40;;;;;;;7.38;5.10;;;;;;;-0.92;79.98;102755.63;1036108;28;20053;-76
2021/04/23 02:10:18;;;;;;;15.57;6.03;;;;;;;-0.90;79.69;102763.41;1035935;28;20056;-76
2021/04/23 02:10:54;;;;;;;10.85;5.88;;;;;;;-0.95;79.57;102757.91;1035905;28;20045;-76
2021/04/23 02:11:26;;;;;;;10.43;5.53;;;;;;;-0.97;79.91;102759.41;1031943;28;20123;-76
2021/04/23 02:11:57;;;;;;;12.48;5.53;;;;;;;-1.01;80.32;102757.34;1033979;28;20049;-76
2021/04/23 02:12:28;;;;;;;10.20;5.38;;;;;;;-1.04;80.67;102764.66;1035817;28;20536;-76
2021/04/23 02:13:00;;;;;;;12.90;6.00;;;;;;;-1.15;81.02;102761.13;1036037;28;20132;-76
2021/04/23 02:13:32;;;;;;;15.50;6.22;;;;;;;-1.14;80.86;102762.03;1032092;28;20053;-76
2021/04/23 02:14:04;;;;;;;16.50;6.38;;;;;;;-1.10;80.88;102757.38;1036050;28;20140;-76
2021/04/23 02:14:36;;;;;;;14.80;6.32;;;;;;;-1.12;80.83;102760.53;1034353;28;20077;-76
2021/04/23 02:15:10;;;;;;;12.00;6.25;;;;;;;-1.09;80.89;102759.16;1032915;28;20101;-76
2021/04/23 02:15:41;;;;;;;14.73;6.60;;;;;;;-1.14;81.25;102760.38;1039844;28;20489;-76
2021/04/23 02:16:14;;;;;;;11.63;6.85;;;;;;;-1.16;80.80;102761.00;1035926;28;20053;-76
2021/04/23 02:16:46;;;;;;;8.93;5.88;;;;;;;-1.08;81.14;102766.06;1036603;28;20050;-76
2021/04/23 02:17:18;;;;;;;9.77;5.55;;;;;;;-1.02;81.23;102763.19;1035916;28;20088;-76
2021/04/23 02:17:49;;;;;;;12.82;6.97;;;;;;;-0.98;80.80;102765.22;1032731;28;20054;-76
2021/04/23 02:18:22;;;;;;;13.73;5.53;;;;;;;-0.94;80.68;102764.78;1031784;28;20050;-76
2021/04/23 02:18:53;;;;;;;8.77;6.20;;;;;;;-0.88;80.41;102766.97;1031913;28;20054;-76
2021/04/23 02:19:24;;;;;;;12.73;6.28;;;;;;;-0.86;80.32;102771.44;1032472;28;20515;-76
2021/04/23 02:19:55;;;;;;;13.75;6.03;;;;;;;-0.83;80.19;102768.31;1035938;28;20095;-76
2021/04/23 02:20:30;;;;;;;12.02;6.07;;;;;;;-0.95;80.01;102773.16;1035861;28;20053;-76
2021/04/23 02:21:03;;;;;;;12.23;5.65;;;;;;;-0.92;80.38;102768.34;1032016;28;20112;-76
2021/04/23 02:21:38;;;;;;;16.88;6.15;;;;;;;-0.87;80.19;102774.72;1031939;28;20051;-76
2021/04/23 02:22:09;;;;;;;13.65;6.75;;;;;;;-0.85;80.55;102765.63;1033534;28;20410;-76
2021/04/23 02:22:42;;;;;;;9.95;6.38;;;;;;;-0.80;80.39;102768.56;1035846;28;20046;-76
2021/04/23 02:23:13;;;;;;;9.07;5.22;;;;;;;-0.80;80.10;102769.47;1035989;28;20134;-76
2021/04/23 02:23:48;;;;;;;13.95;5.78;;;;;;;-0.83;80.35;102766.66;1035870;28;20057;-76
2021/04/23 02:24:20;;;;;;;13.43;5.82;;;;;;;-0.85;80.37;102763.09;1035938;28;20083;-76
2021/04/23 02:24:51;;;;;;;15.30;6.28;;;;;;;-0.88;80.44;102769.53;1031589;28;20530;-76
2021/04/23 02:25:22;;;;;;;18.25;6.13;;;;;;;-0.89;80.67;102766.09;1031746;28;20458;-76
2021/04/23 02:25:55;;;;;;;10.23;6.13;;;;;;;-0.88;80.52;102761.91;1032307;28;20130;-76
2021/04/23 02:26:26;;;;;;;10.90;6.00;;;;;;;-0.92;80.78;102758.19;1032491;28;20046;-76
2021/04/23 02:26:57;;;;;;;11.38;6.53;;;;;;;-0.86;80.48;102768.00;1035675;28;20045;-76
2021/04/23 02:27:28;;;;;;;10.93;5.57;;;;;;;-0.87;80.28;102763.69;1038513;28;20046;-76
2021/04/23 02:27:59;;;;;;;10.25;5.95;;;;;;;-0.86;80.72;102773.97;1039990;28;20052;-76
2021/04/23 02:28:31;;;;;;;22.52;7.22;;;;;;;-0.96;80.66;102765.41;1032846;28;20056;-76
2021/04/23 02:29:07;;;;;;;7.78;5.47;;;;;;;-1.01;80.90;102764.06;1035851;28;20046;-76
2021/04/23 02:29:38;;;;;;;11.82;6.28;;;;;;;-0.99;80.69;102763.44;1031900;28;20073;-76
2021/04/23 02:30:14;;;;;;;12.10;5.88;;;;;;;-1.04;80.93;102768.84;1032903;28;20438;-76
2021/04/23 02:30:52;;;;;;;8.52;5.47;;;;;;;-1.14;81.26;102764.56;1036010;28;20057;-76
2021/04/23 02:31:28;;;;;;;16.75;6.07;;;;;;;-1.19;81.67;102769.25;1035964;28;20050;-76
2021/04/23 02:31:59;;;;;;;13.02;5.72;;;;;;;-1.12;81.29;102769.06;1036071;28;20613;-76
2021/04/23 02:32:30;;;;;;;12.95;5.72;;;;;;;-1.09;81.29;102766.78;1035840;28;20083;-76
2021/04/23 02:33:06;;;;;;;9.75;5.43;;;;;;;-1.06;80.63;102768.72;1032545;28;20415;-76